Seven Pines, Texas
Current Conditions -  °F | °C
As of 6:15 PM on Wednesday 28 Jan 2015 (Local Time) from KJXI Reporting Station
Clear Clear  
Wind Chill: 70°   Ceiling: Unl
Heat Index: 70°   Visibility: 10mi
Dew Point: 44°   Wind: 6mph
Humidity: 40%   Direction: 150°SSE
Pressure: 30.03"   Gusts: NA
Location:  32.7353°N, 94.9492°W
Report Text: KJXI 290015Z AUTO 15005KT 10SM CLR 21/07 A3003 RMK AO2 T02090068
Loading
Personal Weather Stations






























Interactive Weather Map New forecast layout! Learn more

10-Day Weather Forecast

Advertisements
Track Severe Weather on mobile